sensor_id;sensor_type;location;lat;lon;timestamp;P1;durP1;ratioP1;P2;durP2;ratioP2
22421;SDS011;11378;51.642;7.668;2022-09-12T00:00:28;4.10;;;3.00;;
22421;SDS011;11378;51.642;7.668;2022-09-12T00:02:56;3.85;;;3.15;;
22421;SDS011;11378;51.642;7.668;2022-09-12T00:05:22;3.65;;;2.97;;
22421;SDS011;11378;51.642;7.668;2022-09-12T00:07:49;3.22;;;2.92;;
22421;SDS011;11378;51.642;7.668;2022-09-12T00:10:15;4.55;;;3.33;;
22421;SDS011;11378;51.642;7.668;2022-09-12T00:12:42;3.67;;;2.67;;
22421;SDS011;11378;51.642;7.668;2022-09-12T00:15:08;3.55;;;2.72;;
22421;SDS011;11378;51.642;7.668;2022-09-12T00:17:35;3.05;;;2.58;;
22421;SDS011;11378;51.642;7.668;2022-09-12T00:20:02;3.08;;;2.78;;
22421;SDS011;11378;51.642;7.668;2022-09-12T00:22:28;3.50;;;2.78;;
22421;SDS011;11378;51.642;7.668;2022-09-12T00:24:54;3.15;;;2.60;;
22421;SDS011;11378;51.642;7.668;2022-09-12T00:27:20;2.85;;;2.50;;
22421;SDS011;11378;51.642;7.668;2022-09-12T00:29:46;3.10;;;2.58;;
22421;SDS011;11378;51.642;7.668;2022-09-12T00:32:12;2.70;;;2.50;;
22421;SDS011;11378;51.642;7.668;2022-09-12T00:34:38;3.50;;;2.42;;
22421;SDS011;11378;51.642;7.668;2022-09-12T00:37:05;3.20;;;2.85;;
22421;SDS011;11378;51.642;7.668;2022-09-12T00:39:31;2.83;;;2.53;;
22421;SDS011;11378;51.642;7.668;2022-09-12T00:41:57;3.63;;;2.92;;
22421;SDS011;11378;51.642;7.668;2022-09-12T00:47:09;4.32;;;2.70;;
22421;SDS011;11378;51.642;7.668;2022-09-12T00:55:15;2.83;;;2.60;;
22421;SDS011;11378;51.642;7.668;2022-09-12T01:00:27;4.82;;;2.60;;
22421;SDS011;11378;51.642;7.668;2022-09-12T01:02:54;2.97;;;2.30;;
22421;SDS011;11378;51.642;7.668;2022-09-12T01:05:21;3.13;;;2.60;;
22421;SDS011;11378;51.642;7.668;2022-09-12T01:07:48;2.40;;;2.20;;
22421;SDS011;11378;51.642;7.668;2022-09-12T01:10:15;2.38;;;2.17;;
22421;SDS011;11378;51.642;7.668;2022-09-12T01:12:42;2.70;;;2.50;;
22421;SDS011;11378;51.642;7.668;2022-09-12T01:15:08;4.03;;;2.63;;
22421;SDS011;11378;51.642;7.668;2022-09-12T01:17:48;2.67;;;2.47;;
22421;SDS011;11378;51.642;7.668;2022-09-12T01:33:24;2.53;;;2.33;;
22421;SDS011;11378;51.642;7.668;2022-09-12T01:38:26;2.90;;;2.60;;
22421;SDS011;11378;51.642;7.668;2022-09-12T01:43:49;2.67;;;2.35;;
22421;SDS011;11378;51.642;7.668;2022-09-12T01:46:23;2.83;;;2.40;;
22421;SDS011;11378;51.642;7.668;2022-09-12T01:48:54;2.22;;;2.00;;
22421;SDS011;11378;51.642;7.668;2022-09-12T01:51:22;3.00;;;2.40;;
22421;SDS011;11378;51.642;7.668;2022-09-12T01:53:54;2.78;;;2.33;;
22421;SDS011;11378;51.642;7.668;2022-09-12T01:56:22;2.60;;;2.40;;
22421;SDS011;11378;51.642;7.668;2022-09-12T02:01:39;2.58;;;2.38;;
22421;SDS011;11378;51.642;7.668;2022-09-12T02:04:26;2.60;;;2.20;;
22421;SDS011;11378;51.642;7.668;2022-09-12T02:06:58;3.67;;;2.40;;
22421;SDS011;11378;51.642;7.668;2022-09-12T02:12:23;3.00;;;2.20;;
22421;SDS011;11378;51.642;7.668;2022-09-12T02:14:52;4.25;;;2.25;;
22421;SDS011;11378;51.642;7.668;2022-09-12T02:17:20;2.95;;;2.20;;
22421;SDS011;11378;51.642;7.668;2022-09-12T02:22:19;2.88;;;2.03;;
22421;SDS011;11378;51.642;7.668;2022-09-12T02:24:47;3.20;;;2.55;;
22421;SDS011;11378;51.642;7.668;2022-09-12T02:27:15;2.33;;;2.03;;
22421;SDS011;11378;51.642;7.668;2022-09-12T02:29:43;2.97;;;2.15;;
22421;SDS011;11378;51.642;7.668;2022-09-12T02:40:01;3.00;;;2.22;;
22421;SDS011;11378;51.642;7.668;2022-09-12T02:42:27;2.42;;;2.13;;
22421;SDS011;11378;51.642;7.668;2022-09-12T02:44:54;2.28;;;2.05;;
22421;SDS011;11378;51.642;7.668;2022-09-12T02:49:47;3.65;;;1.80;;
22421;SDS011;11378;51.642;7.668;2022-09-12T02:52:13;2.10;;;1.90;;
22421;SDS011;11378;51.642;7.668;2022-09-12T02:54:40;2.38;;;1.98;;
22421;SDS011;11378;51.642;7.668;2022-09-12T02:57:16;2.25;;;2.05;;
22421;SDS011;11378;51.642;7.668;2022-09-12T02:59:43;2.30;;;2.10;;
22421;SDS011;11378;51.642;7.668;2022-09-12T03:07:51;3.72;;;1.85;;
22421;SDS011;11378;51.642;7.668;2022-09-12T03:13:06;1.83;;;1.70;;
22421;SDS011;11378;51.642;7.668;2022-09-12T03:16:00;2.20;;;2.00;;
22421;SDS011;11378;51.642;7.668;2022-09-12T03:23:32;2.55;;;2.33;;
22421;SDS011;11378;51.642;7.668;2022-09-12T03:26:11;1.98;;;1.67;;
22421;SDS011;11378;51.642;7.668;2022-09-12T03:28:37;1.80;;;1.70;;
22421;SDS011;11378;51.642;7.668;2022-09-12T03:31:14;2.65;;;2.38;;
22421;SDS011;11378;51.642;7.668;2022-09-12T03:33:40;2.67;;;1.80;;
22421;SDS011;11378;51.642;7.668;2022-09-12T03:36:26;1.90;;;1.75;;
22421;SDS011;11378;51.642;7.668;2022-09-12T03:38:52;3.42;;;2.05;;
22421;SDS011;11378;51.642;7.668;2022-09-12T03:41:18;2.45;;;2.22;;
22421;SDS011;11378;51.642;7.668;2022-09-12T03:43:45;4.07;;;1.90;;
22421;SDS011;11378;51.642;7.668;2022-09-12T03:46:11;2.20;;;2.00;;
22421;SDS011;11378;51.642;7.668;2022-09-12T03:48:38;2.00;;;1.73;;
22421;SDS011;11378;51.642;7.668;2022-09-12T03:51:05;1.85;;;1.75;;
22421;SDS011;11378;51.642;7.668;2022-09-12T03:53:31;2.75;;;1.90;;
22421;SDS011;11378;51.642;7.668;2022-09-12T03:55:58;1.90;;;1.80;;
22421;SDS011;11378;51.642;7.668;2022-09-12T03:58:24;2.63;;;2.25;;
22421;SDS011;11378;51.642;7.668;2022-09-12T04:00:54;2.25;;;1.80;;
22421;SDS011;11378;51.642;7.668;2022-09-12T04:03:20;2.17;;;1.98;;
22421;SDS011;11378;51.642;7.668;2022-09-12T04:05:46;1.77;;;1.63;;
22421;SDS011;11378;51.642;7.668;2022-09-12T04:08:13;2.25;;;2.00;;
22421;SDS011;11378;51.642;7.668;2022-09-12T04:10:39;2.05;;;1.85;;
22421;SDS011;11378;51.642;7.668;2022-09-12T04:13:05;2.03;;;1.75;;
22421;SDS011;11378;51.642;7.668;2022-09-12T04:15:32;2.20;;;1.80;;
22421;SDS011;11378;51.642;7.668;2022-09-12T04:17:58;3.42;;;1.98;;
22421;SDS011;11378;51.642;7.668;2022-09-12T04:20:24;1.77;;;1.67;;
22421;SDS011;11378;51.642;7.668;2022-09-12T04:22:50;1.90;;;1.70;;
22421;SDS011;11378;51.642;7.668;2022-09-12T04:25:16;1.90;;;1.80;;
22421;SDS011;11378;51.642;7.668;2022-09-12T04:27:42;2.40;;;1.85;;
22421;SDS011;11378;51.642;7.668;2022-09-12T04:30:08;2.17;;;1.98;;
22421;SDS011;11378;51.642;7.668;2022-09-12T04:32:35;1.95;;;1.77;;
22421;SDS011;11378;51.642;7.668;2022-09-12T04:35:02;1.77;;;1.65;;
22421;SDS011;11378;51.642;7.668;2022-09-12T04:37:28;1.98;;;1.85;;
22421;SDS011;11378;51.642;7.668;2022-09-12T04:39:55;1.75;;;1.65;;
22421;SDS011;11378;51.642;7.668;2022-09-12T04:42:22;2.30;;;1.50;;
22421;SDS011;11378;51.642;7.668;2022-09-12T04:44:48;2.20;;;1.63;;
22421;SDS011;11378;51.642;7.668;2022-09-12T04:47:14;1.60;;;1.50;;
22421;SDS011;11378;51.642;7.668;2022-09-12T04:49:41;1.70;;;1.60;;
22421;SDS011;11378;51.642;7.668;2022-09-12T04:52:07;2.33;;;1.48;;
22421;SDS011;11378;51.642;7.668;2022-09-12T04:54:33;2.47;;;1.75;;
22421;SDS011;11378;51.642;7.668;2022-09-12T04:56:59;1.95;;;1.70;;
22421;SDS011;11378;51.642;7.668;2022-09-12T04:59:25;2.17;;;1.73;;
22421;SDS011;11378;51.642;7.668;2022-09-12T05:01:51;2.40;;;1.83;;
22421;SDS011;11378;51.642;7.668;2022-09-12T05:04:18;1.83;;;1.73;;
22421;SDS011;11378;51.642;7.668;2022-09-12T05:06:45;1.83;;;1.50;;
22421;SDS011;11378;51.642;7.668;2022-09-12T05:09:12;1.58;;;1.48;;
22421;SDS011;11378;51.642;7.668;2022-09-12T05:11:39;2.03;;;1.75;;
22421;SDS011;11378;51.642;7.668;2022-09-12T05:14:08;3.47;;;1.80;;
22421;SDS011;11378;51.642;7.668;2022-09-12T05:16:34;1.75;;;1.60;;
22421;SDS011;11378;51.642;7.668;2022-09-12T05:19:00;1.75;;;1.65;;
22421;SDS011;11378;51.642;7.668;2022-09-12T05:21:26;2.13;;;1.40;;
22421;SDS011;11378;51.642;7.668;2022-09-12T05:23:53;2.35;;;1.92;;
22421;SDS011;11378;51.642;7.668;2022-09-12T05:26:20;1.80;;;1.60;;
22421;SDS011;11378;51.642;7.668;2022-09-12T05:28:47;3.70;;;1.70;;
22421;SDS011;11378;51.642;7.668;2022-09-12T05:31:17;1.50;;;1.40;;
22421;SDS011;11378;51.642;7.668;2022-09-12T05:33:45;1.48;;;1.38;;
22421;SDS011;11378;51.642;7.668;2022-09-12T05:36:12;1.60;;;1.50;;
22421;SDS011;11378;51.642;7.668;2022-09-12T05:38:39;2.25;;;1.67;;
22421;SDS011;11378;51.642;7.668;2022-09-12T05:41:06;1.80;;;1.58;;
22421;SDS011;11378;51.642;7.668;2022-09-12T05:43:32;3.25;;;1.63;;
22421;SDS011;11378;51.642;7.668;2022-09-12T05:45:59;2.85;;;1.45;;
22421;SDS011;11378;51.642;7.668;2022-09-12T05:48:25;2.55;;;1.67;;
22421;SDS011;11378;51.642;7.668;2022-09-12T05:50:58;2.03;;;1.60;;
22421;SDS011;11378;51.642;7.668;2022-09-12T05:53:25;1.58;;;1.48;;
22421;SDS011;11378;51.642;7.668;2022-09-12T05:56:05;1.65;;;1.52;;
22421;SDS011;11378;51.642;7.668;2022-09-12T06:01:04;1.75;;;1.52;;
22421;SDS011;11378;51.642;7.668;2022-09-12T06:03:36;2.05;;;1.60;;
22421;SDS011;11378;51.642;7.668;2022-09-12T06:06:05;1.63;;;1.52;;
22421;SDS011;11378;51.642;7.668;2022-09-12T06:08:32;1.88;;;1.67;;
22421;SDS011;11378;51.642;7.668;2022-09-12T06:11:02;1.75;;;1.65;;
22421;SDS011;11378;51.642;7.668;2022-09-12T06:13:32;1.80;;;1.50;;
22421;SDS011;11378;51.642;7.668;2022-09-12T06:16:05;1.83;;;1.65;;
22421;SDS011;11378;51.642;7.668;2022-09-12T06:18:35;1.52;;;1.42;;
22421;SDS011;11378;51.642;7.668;2022-09-12T06:21:06;1.75;;;1.50;;
22421;SDS011;11378;51.642;7.668;2022-09-12T06:23:32;1.67;;;1.58;;
22421;SDS011;11378;51.642;7.668;2022-09-12T06:25:59;1.67;;;1.27;;
22421;SDS011;11378;51.642;7.668;2022-09-12T06:28:25;5.85;;;1.67;;
22421;SDS011;11378;51.642;7.668;2022-09-12T06:30:51;2.47;;;1.65;;
22421;SDS011;11378;51.642;7.668;2022-09-12T06:33:17;2.30;;;1.77;;
22421;SDS011;11378;51.642;7.668;2022-09-12T06:35:44;1.90;;;1.70;;
22421;SDS011;11378;51.642;7.668;2022-09-12T06:38:10;2.55;;;2.20;;
22421;SDS011;11378;51.642;7.668;2022-09-12T06:40:42;4.57;;;1.92;;
22421;SDS011;11378;51.642;7.668;2022-09-12T06:43:11;6.22;;;2.45;;
22421;SDS011;11378;51.642;7.668;2022-09-12T06:45:38;4.80;;;3.17;;
22421;SDS011;11378;51.642;7.668;2022-09-12T06:48:04;4.13;;;2.60;;
22421;SDS011;11378;51.642;7.668;2022-09-12T06:50:30;4.07;;;2.30;;
22421;SDS011;11378;51.642;7.668;2022-09-12T06:52:57;3.08;;;2.55;;
22421;SDS011;11378;51.642;7.668;2022-09-12T06:55:23;4.45;;;2.22;;
22421;SDS011;11378;51.642;7.668;2022-09-12T06:57:49;2.72;;;2.30;;
22421;SDS011;11378;51.642;7.668;2022-09-12T07:00:16;3.05;;;2.15;;
22421;SDS011;11378;51.642;7.668;2022-09-12T07:02:42;3.22;;;2.20;;
22421;SDS011;11378;51.642;7.668;2022-09-12T07:05:08;2.53;;;2.10;;
22421;SDS011;11378;51.642;7.668;2022-09-12T07:07:35;3.22;;;1.98;;
22421;SDS011;11378;51.642;7.668;2022-09-12T07:10:02;3.28;;;2.38;;
22421;SDS011;11378;51.642;7.668;2022-09-12T07:12:28;3.40;;;2.40;;
22421;SDS011;11378;51.642;7.668;2022-09-12T07:14:54;3.00;;;1.60;;
22421;SDS011;11378;51.642;7.668;2022-09-12T07:17:20;1.60;;;1.50;;
22421;SDS011;11378;51.642;7.668;2022-09-12T07:19:47;3.58;;;2.20;;
22421;SDS011;11378;51.642;7.668;2022-09-12T07:22:13;2.05;;;1.88;;
22421;SDS011;11378;51.642;7.668;2022-09-12T07:24:40;2.63;;;2.10;;
22421;SDS011;11378;51.642;7.668;2022-09-12T07:27:06;2.10;;;1.90;;
22421;SDS011;11378;51.642;7.668;2022-09-12T07:29:33;2.28;;;1.98;;
22421;SDS011;11378;51.642;7.668;2022-09-12T07:31:59;2.05;;;1.85;;
22421;SDS011;11378;51.642;7.668;2022-09-12T07:34:26;1.92;;;1.80;;
22421;SDS011;11378;51.642;7.668;2022-09-12T07:36:52;2.75;;;2.05;;
22421;SDS011;11378;51.642;7.668;2022-09-12T07:39:18;2.38;;;1.85;;
22421;SDS011;11378;51.642;7.668;2022-09-12T07:41:44;1.92;;;1.50;;
22421;SDS011;11378;51.642;7.668;2022-09-12T07:44:10;1.77;;;1.67;;
22421;SDS011;11378;51.642;7.668;2022-09-12T07:46:36;2.67;;;1.73;;
22421;SDS011;11378;51.642;7.668;2022-09-12T07:49:04;4.47;;;3.72;;
22421;SDS011;11378;51.642;7.668;2022-09-12T07:51:30;12.90;;;5.53;;
22421;SDS011;11378;51.642;7.668;2022-09-12T07:53:56;9.48;;;6.50;;
22421;SDS011;11378;51.642;7.668;2022-09-12T07:56:23;9.38;;;6.78;;
22421;SDS011;11378;51.642;7.668;2022-09-12T07:58:49;11.43;;;6.93;;
22421;SDS011;11378;51.642;7.668;2022-09-12T08:01:17;10.77;;;7.07;;
22421;SDS011;11378;51.642;7.668;2022-09-12T08:03:44;9.77;;;7.22;;
22421;SDS011;11378;51.642;7.668;2022-09-12T08:06:20;8.80;;;6.72;;
22421;SDS011;11378;51.642;7.668;2022-09-12T08:08:51;12.40;;;7.43;;
22421;SDS011;11378;51.642;7.668;2022-09-12T08:11:18;10.68;;;7.22;;
22421;SDS011;11378;51.642;7.668;2022-09-12T08:13:45;9.48;;;7.22;;
22421;SDS011;11378;51.642;7.668;2022-09-12T08:16:12;12.57;;;6.70;;
22421;SDS011;11378;51.642;7.668;2022-09-12T08:18:39;10.05;;;7.43;;
22421;SDS011;11378;51.642;7.668;2022-09-12T08:21:06;10.18;;;6.80;;
22421;SDS011;11378;51.642;7.668;2022-09-12T08:23:33;12.45;;;7.18;;
22421;SDS011;11378;51.642;7.668;2022-09-12T08:26:00;12.45;;;7.70;;
22421;SDS011;11378;51.642;7.668;2022-09-12T08:28:27;14.10;;;7.03;;
22421;SDS011;11378;51.642;7.668;2022-09-12T08:30:54;10.32;;;7.30;;
22421;SDS011;11378;51.642;7.668;2022-09-12T08:33:24;9.70;;;7.22;;
22421;SDS011;11378;51.642;7.668;2022-09-12T08:36:18;11.88;;;7.03;;
22421;SDS011;11378;51.642;7.668;2022-09-12T08:38:44;10.85;;;6.68;;
22421;SDS011;11378;51.642;7.668;2022-09-12T08:46:14;11.98;;;6.78;;
22421;SDS011;11378;51.642;7.668;2022-09-12T08:48:42;11.10;;;7.10;;
22421;SDS011;11378;51.642;7.668;2022-09-12T08:51:10;11.57;;;6.90;;
22421;SDS011;11378;51.642;7.668;2022-09-12T08:53:38;13.60;;;7.00;;
22421;SDS011;11378;51.642;7.668;2022-09-12T08:56:05;12.40;;;7.75;;
22421;SDS011;11378;51.642;7.668;2022-09-12T08:58:39;7.40;;;6.05;;
22421;SDS011;11378;51.642;7.668;2022-09-12T09:17:03;9.90;;;5.00;;
22421;SDS011;11378;51.642;7.668;2022-09-12T09:19:35;7.80;;;5.78;;
22421;SDS011;11378;51.642;7.668;2022-09-12T09:22:14;8.07;;;5.43;;
22421;SDS011;11378;51.642;7.668;2022-09-12T09:24:46;9.13;;;5.43;;
22421;SDS011;11378;51.642;7.668;2022-09-12T09:27:30;11.30;;;5.95;;
22421;SDS011;11378;51.642;7.668;2022-09-12T09:29:58;9.27;;;6.47;;
22421;SDS011;11378;51.642;7.668;2022-09-12T09:32:35;9.38;;;5.95;;
22421;SDS011;11378;51.642;7.668;2022-09-12T09:36:04;8.68;;;5.55;;
22421;SDS011;11378;51.642;7.668;2022-09-12T09:37:59;8.80;;;5.45;;
22421;SDS011;11378;51.642;7.668;2022-09-12T09:43:30;10.65;;;6.80;;
22421;SDS011;11378;51.642;7.668;2022-09-12T09:45:56;10.52;;;7.15;;
22421;SDS011;11378;51.642;7.668;2022-09-12T09:50:56;10.90;;;6.57;;
22421;SDS011;11378;51.642;7.668;2022-09-12T09:58:55;9.55;;;6.75;;
22421;SDS011;11378;51.642;7.668;2022-09-12T10:01:22;10.77;;;6.90;;
22421;SDS011;11378;51.642;7.668;2022-09-12T10:03:49;12.38;;;7.20;;
22421;SDS011;11378;51.642;7.668;2022-09-12T10:08:45;12.98;;;7.07;;
22421;SDS011;11378;51.642;7.668;2022-09-12T10:13:55;13.00;;;7.07;;
22421;SDS011;11378;51.642;7.668;2022-09-12T10:18:48;13.25;;;6.82;;
22421;SDS011;11378;51.642;7.668;2022-09-12T10:23:44;7.70;;;5.57;;
22421;SDS011;11378;51.642;7.668;2022-09-12T10:26:12;9.45;;;6.55;;
22421;SDS011;11378;51.642;7.668;2022-09-12T10:28:40;9.13;;;6.18;;
22421;SDS011;11378;51.642;7.668;2022-09-12T10:31:08;10.27;;;6.10;;
22421;SDS011;11378;51.642;7.668;2022-09-12T10:33:47;7.45;;;5.45;;
22421;SDS011;11378;51.642;7.668;2022-09-12T10:36:20;9.98;;;5.50;;
22421;SDS011;11378;51.642;7.668;2022-09-12T10:38:51;8.05;;;5.13;;
22421;SDS011;11378;51.642;7.668;2022-09-12T10:41:18;7.70;;;5.13;;
22421;SDS011;11378;51.642;7.668;2022-09-12T10:43:46;7.82;;;5.22;;
22421;SDS011;11378;51.642;7.668;2022-09-12T10:48:41;7.38;;;4.57;;
22421;SDS011;11378;51.642;7.668;2022-09-12T10:51:25;6.85;;;4.95;;
22421;SDS011;11378;51.642;7.668;2022-09-12T10:53:56;6.25;;;4.88;;
22421;SDS011;11378;51.642;7.668;2022-09-12T10:56:24;6.82;;;4.82;;
22421;SDS011;11378;51.642;7.668;2022-09-12T11:06:14;7.95;;;4.75;;
22421;SDS011;11378;51.642;7.668;2022-09-12T11:22:18;3.78;;;3.47;;
22421;SDS011;11378;51.642;7.668;2022-09-12T11:35:07;3.72;;;3.17;;
22421;SDS011;11378;51.642;7.668;2022-09-12T11:37:53;5.20;;;3.90;;
22421;SDS011;11378;51.642;7.668;2022-09-12T11:40:26;6.90;;;3.70;;
22421;SDS011;11378;51.642;7.668;2022-09-12T11:42:53;5.82;;;3.95;;
22421;SDS011;11378;51.642;7.668;2022-09-12T11:45:40;6.43;;;3.85;;
22421;SDS011;11378;51.642;7.668;2022-09-12T11:48:09;5.90;;;3.10;;
22421;SDS011;11378;51.642;7.668;2022-09-12T11:50:37;4.25;;;3.15;;
22421;SDS011;11378;51.642;7.668;2022-09-12T11:55:45;9.13;;;3.67;;
22421;SDS011;11378;51.642;7.668;2022-09-12T11:58:12;5.38;;;3.50;;
22421;SDS011;11378;51.642;7.668;2022-09-12T12:00:46;6.55;;;3.30;;
22421;SDS011;11378;51.642;7.668;2022-09-12T12:06:15;5.07;;;3.10;;
22421;SDS011;11378;51.642;7.668;2022-09-12T12:08:43;5.93;;;3.40;;
22421;SDS011;11378;51.642;7.668;2022-09-12T12:11:11;4.32;;;3.20;;
22421;SDS011;11378;51.642;7.668;2022-09-12T12:13:45;4.45;;;3.13;;
22421;SDS011;11378;51.642;7.668;2022-09-12T12:18:41;5.78;;;3.67;;
22421;SDS011;11378;51.642;7.668;2022-09-12T12:21:26;3.95;;;3.15;;
22421;SDS011;11378;51.642;7.668;2022-09-12T12:34:02;4.50;;;3.03;;
22421;SDS011;11378;51.642;7.668;2022-09-12T12:36:29;4.88;;;3.55;;
22421;SDS011;11378;51.642;7.668;2022-09-12T12:38:58;7.90;;;3.72;;
22421;SDS011;11378;51.642;7.668;2022-09-12T12:43:51;3.78;;;3.03;;
22421;SDS011;11378;51.642;7.668;2022-09-12T12:46:18;4.45;;;2.85;;
22421;SDS011;11378;51.642;7.668;2022-09-12T12:48:49;6.07;;;3.13;;
22421;SDS011;11378;51.642;7.668;2022-09-12T12:51:31;5.70;;;3.15;;
22421;SDS011;11378;51.642;7.668;2022-09-12T12:53:59;8.75;;;3.00;;
22421;SDS011;11378;51.642;7.668;2022-09-12T12:56:32;4.15;;;3.10;;
22421;SDS011;11378;51.642;7.668;2022-09-12T12:59:00;7.38;;;3.25;;
22421;SDS011;11378;51.642;7.668;2022-09-12T13:01:27;5.57;;;3.25;;
22421;SDS011;11378;51.642;7.668;2022-09-12T13:03:55;4.97;;;3.45;;
22421;SDS011;11378;51.642;7.668;2022-09-12T13:08:56;6.65;;;3.00;;
22421;SDS011;11378;51.642;7.668;2022-09-12T13:11:31;6.78;;;2.90;;
22421;SDS011;11378;51.642;7.668;2022-09-12T13:13:59;3.20;;;2.80;;
22421;SDS011;11378;51.642;7.668;2022-09-12T13:16:30;3.88;;;2.80;;
22421;SDS011;11378;51.642;7.668;2022-09-12T13:18:56;4.05;;;2.78;;
22421;SDS011;11378;51.642;7.668;2022-09-12T13:21:25;3.30;;;2.85;;
22421;SDS011;11378;51.642;7.668;2022-09-12T13:24:25;4.93;;;3.72;;
22421;SDS011;11378;51.642;7.668;2022-09-12T13:26:44;4.95;;;2.90;;
22421;SDS011;11378;51.642;7.668;2022-09-12T13:29:19;4.65;;;2.85;;
22421;SDS011;11378;51.642;7.668;2022-09-12T13:31:47;3.42;;;3.13;;
22421;SDS011;11378;51.642;7.668;2022-09-12T13:34:21;3.95;;;2.60;;
22421;SDS011;11378;51.642;7.668;2022-09-12T13:44:24;2.88;;;2.45;;
22421;SDS011;11378;51.642;7.668;2022-09-12T13:46:51;2.97;;;2.50;;
22421;SDS011;11378;51.642;7.668;2022-09-12T13:49:29;3.50;;;3.00;;
22421;SDS011;11378;51.642;7.668;2022-09-12T13:52:14;2.80;;;2.30;;
22421;SDS011;11378;51.642;7.668;2022-09-12T13:54:41;4.47;;;2.38;;
22421;SDS011;11378;51.642;7.668;2022-09-12T13:57:23;5.57;;;2.75;;
22421;SDS011;11378;51.642;7.668;2022-09-12T13:59:53;2.80;;;2.60;;
22421;SDS011;11378;51.642;7.668;2022-09-12T14:02:21;3.30;;;2.60;;
22421;SDS011;11378;51.642;7.668;2022-09-12T14:04:48;2.70;;;2.50;;
22421;SDS011;11378;51.642;7.668;2022-09-12T14:07:38;3.17;;;2.38;;
22421;SDS011;11378;51.642;7.668;2022-09-12T14:10:05;2.72;;;2.50;;
22421;SDS011;11378;51.642;7.668;2022-09-12T14:14:58;2.40;;;2.20;;
22421;SDS011;11378;51.642;7.668;2022-09-12T14:19:57;2.75;;;2.28;;
22421;SDS011;11378;51.642;7.668;2022-09-12T14:22:27;2.83;;;2.55;;
22421;SDS011;11378;51.642;7.668;2022-09-12T14:24:55;3.35;;;2.45;;
22421;SDS011;11378;51.642;7.668;2022-09-12T14:27:30;2.63;;;2.42;;
22421;SDS011;11378;51.642;7.668;2022-09-12T14:30:03;2.50;;;2.30;;
22421;SDS011;11378;51.642;7.668;2022-09-12T14:32:31;4.95;;;2.30;;
22421;SDS011;11378;51.642;7.668;2022-09-12T14:37:30;3.28;;;2.50;;
22421;SDS011;11378;51.642;7.668;2022-09-12T14:39:56;2.47;;;2.28;;
22421;SDS011;11378;51.642;7.668;2022-09-12T14:42:24;3.78;;;2.00;;
22421;SDS011;11378;51.642;7.668;2022-09-12T14:44:52;2.50;;;2.03;;
22421;SDS011;11378;51.642;7.668;2022-09-12T14:47:21;3.40;;;2.60;;
22421;SDS011;11378;51.642;7.668;2022-09-12T14:49:49;2.90;;;2.42;;
22421;SDS011;11378;51.642;7.668;2022-09-12T14:54:54;2.75;;;2.50;;
22421;SDS011;11378;51.642;7.668;2022-09-12T15:00:04;3.13;;;2.38;;
22421;SDS011;11378;51.642;7.668;2022-09-12T15:02:30;2.97;;;2.35;;
22421;SDS011;11378;51.642;7.668;2022-09-12T15:07:30;2.45;;;2.25;;
22421;SDS011;11378;51.642;7.668;2022-09-12T15:09:59;3.08;;;2.70;;
22421;SDS011;11378;51.642;7.668;2022-09-12T15:12:25;2.53;;;2.33;;
22421;SDS011;11378;51.642;7.668;2022-09-12T15:14:52;3.47;;;2.70;;
22421;SDS011;11378;51.642;7.668;2022-09-12T15:17:19;5.65;;;2.47;;
22421;SDS011;11378;51.642;7.668;2022-09-12T15:19:46;5.38;;;3.10;;
22421;SDS011;11378;51.642;7.668;2022-09-12T15:22:13;3.20;;;2.90;;
22421;SDS011;11378;51.642;7.668;2022-09-12T15:24:39;4.40;;;3.15;;
22421;SDS011;11378;51.642;7.668;2022-09-12T15:27:10;5.70;;;3.63;;
22421;SDS011;11378;51.642;7.668;2022-09-12T15:29:36;19.67;;;16.27;;
22421;SDS011;11378;51.642;7.668;2022-09-12T15:32:02;15.27;;;11.55;;
22421;SDS011;11378;51.642;7.668;2022-09-12T15:34:30;12.40;;;9.07;;
22421;SDS011;11378;51.642;7.668;2022-09-12T15:36:56;11.43;;;7.22;;
22421;SDS011;11378;51.642;7.668;2022-09-12T15:39:22;8.82;;;6.55;;
22421;SDS011;11378;51.642;7.668;2022-09-12T15:41:48;5.82;;;5.07;;
22421;SDS011;11378;51.642;7.668;2022-09-12T15:44:14;4.40;;;4.00;;
22421;SDS011;11378;51.642;7.668;2022-09-12T15:46:40;4.30;;;3.88;;
22421;SDS011;11378;51.642;7.668;2022-09-12T15:49:07;5.07;;;3.60;;
22421;SDS011;11378;51.642;7.668;2022-09-12T15:51:33;4.22;;;3.40;;
22421;SDS011;11378;51.642;7.668;2022-09-12T15:53:59;3.78;;;3.20;;
22421;SDS011;11378;51.642;7.668;2022-09-12T15:56:26;5.53;;;3.15;;
22421;SDS011;11378;51.642;7.668;2022-09-12T15:58:52;3.40;;;3.00;;
22421;SDS011;11378;51.642;7.668;2022-09-12T16:01:18;3.25;;;2.90;;
22421;SDS011;11378;51.642;7.668;2022-09-12T16:03:45;3.40;;;2.75;;
22421;SDS011;11378;51.642;7.668;2022-09-12T16:06:12;2.78;;;2.53;;
22421;SDS011;11378;51.642;7.668;2022-09-12T16:08:39;5.40;;;3.13;;
22421;SDS011;11378;51.642;7.668;2022-09-12T16:14:01;4.45;;;3.05;;
22421;SDS011;11378;51.642;7.668;2022-09-12T16:16:27;6.38;;;2.83;;
22421;SDS011;11378;51.642;7.668;2022-09-12T16:18:53;3.90;;;2.75;;
22421;SDS011;11378;51.642;7.668;2022-09-12T16:21:20;3.83;;;2.67;;
22421;SDS011;11378;51.642;7.668;2022-09-12T16:23:46;3.08;;;2.60;;
22421;SDS011;11378;51.642;7.668;2022-09-12T16:26:12;5.00;;;2.65;;
22421;SDS011;11378;51.642;7.668;2022-09-12T16:28:39;3.45;;;2.83;;
22421;SDS011;11378;51.642;7.668;2022-09-12T16:31:06;3.45;;;2.72;;
22421;SDS011;11378;51.642;7.668;2022-09-12T16:33:32;3.88;;;3.05;;
22421;SDS011;11378;51.642;7.668;2022-09-12T16:38:28;3.00;;;2.65;;
22421;SDS011;11378;51.642;7.668;2022-09-12T16:41:01;2.90;;;2.60;;
22421;SDS011;11378;51.642;7.668;2022-09-12T16:43:28;2.95;;;2.50;;
22421;SDS011;11378;51.642;7.668;2022-09-12T16:46:04;2.80;;;2.50;;
22421;SDS011;11378;51.642;7.668;2022-09-12T16:48:30;2.60;;;2.30;;
22421;SDS011;11378;51.642;7.668;2022-09-12T16:50:57;4.22;;;2.65;;
22421;SDS011;11378;51.642;7.668;2022-09-12T16:53:25;4.75;;;2.50;;
22421;SDS011;11378;51.642;7.668;2022-09-12T16:55:52;3.08;;;2.35;;
22421;SDS011;11378;51.642;7.668;2022-09-12T16:58:18;3.38;;;2.53;;
22421;SDS011;11378;51.642;7.668;2022-09-12T17:00:44;3.20;;;2.40;;
22421;SDS011;11378;51.642;7.668;2022-09-12T17:03:11;5.15;;;2.65;;
22421;SDS011;11378;51.642;7.668;2022-09-12T17:05:38;2.90;;;2.40;;
22421;SDS011;11378;51.642;7.668;2022-09-12T17:08:05;3.47;;;2.55;;
22421;SDS011;11378;51.642;7.668;2022-09-12T17:10:32;3.58;;;2.58;;
22421;SDS011;11378;51.642;7.668;2022-09-12T17:12:58;2.65;;;2.30;;
22421;SDS011;11378;51.642;7.668;2022-09-12T17:15:24;2.70;;;2.38;;
22421;SDS011;11378;51.642;7.668;2022-09-12T17:17:50;3.35;;;2.60;;
22421;SDS011;11378;51.642;7.668;2022-09-12T17:20:16;3.65;;;2.35;;
22421;SDS011;11378;51.642;7.668;2022-09-12T17:22:42;3.92;;;2.47;;
22421;SDS011;11378;51.642;7.668;2022-09-12T17:25:09;8.70;;;2.45;;
22421;SDS011;11378;51.642;7.668;2022-09-12T17:27:35;3.30;;;2.25;;
22421;SDS011;11378;51.642;7.668;2022-09-12T17:30:01;4.38;;;2.40;;
22421;SDS011;11378;51.642;7.668;2022-09-12T17:32:28;2.33;;;2.05;;
22421;SDS011;11378;51.642;7.668;2022-09-12T17:34:54;3.63;;;2.50;;
22421;SDS011;11378;51.642;7.668;2022-09-12T17:37:20;3.10;;;2.40;;
22421;SDS011;11378;51.642;7.668;2022-09-12T17:39:46;4.65;;;2.30;;
22421;SDS011;11378;51.642;7.668;2022-09-12T17:42:13;3.92;;;2.38;;
22421;SDS011;11378;51.642;7.668;2022-09-12T17:44:39;2.50;;;2.00;;
22421;SDS011;11378;51.642;7.668;2022-09-12T17:47:05;5.47;;;2.50;;
22421;SDS011;11378;51.642;7.668;2022-09-12T17:49:31;7.63;;;2.75;;
22421;SDS011;11378;51.642;7.668;2022-09-12T17:51:58;10.98;;;3.05;;
22421;SDS011;11378;51.642;7.668;2022-09-12T17:54:26;6.65;;;2.50;;
22421;SDS011;11378;51.642;7.668;2022-09-12T17:56:52;6.45;;;3.20;;
22421;SDS011;11378;51.642;7.668;2022-09-12T17:59:20;6.95;;;3.08;;
22421;SDS011;11378;51.642;7.668;2022-09-12T18:01:48;6.53;;;3.40;;
22421;SDS011;11378;51.642;7.668;2022-09-12T18:04:33;5.20;;;3.42;;